createdAt,value
2018-05-18T00:01:31.355Z,72.20
2018-05-18T00:04:02.779Z,73.25
2018-05-18T00:06:35.217Z,72.09
2018-05-18T00:09:07.275Z,72.21
2018-05-18T00:11:37.354Z,72.87
2018-05-18T00:14:08.770Z,72.92
2018-05-18T00:16:40.108Z,72.45
2018-05-18T00:19:10.495Z,73.78
2018-05-18T00:21:40.465Z,74.10
2018-05-18T00:24:11.845Z,73.31
2018-05-18T00:26:43.326Z,74.05
2018-05-18T00:29:13.602Z,74.48
2018-05-18T00:31:45.912Z,74.31
2018-05-18T00:34:17.313Z,74.36
2018-05-18T00:36:48.869Z,75.64
2018-05-18T00:39:21.197Z,74.35
2018-05-18T00:41:52.708Z,73.88
2018-05-18T00:44:24.672Z,73.84
2018-05-18T00:46:54.008Z,74.78
2018-05-18T00:49:24.532Z,74.37
2018-05-18T00:51:55.012Z,74.29
2018-05-18T00:54:26.371Z,74.25
2018-05-18T00:56:56.929Z,74.63
2018-05-18T00:59:28.323Z,75.40
2018-05-18T01:02:00.318Z,74.12
2018-05-18T01:04:31.606Z,74.80
2018-05-18T01:07:04.494Z,74.93
2018-05-18T01:09:36.227Z,74.72
2018-05-18T01:12:07.766Z,74.93
2018-05-18T01:14:40.812Z,74.77
2018-05-18T01:17:11.179Z,74.05
2018-05-18T01:19:41.552Z,74.59
2018-05-18T01:22:12.922Z,74.37
2018-05-18T01:24:42.654Z,74.91
2018-05-18T01:27:12.547Z,74.59
2018-05-18T01:29:42.911Z,74.34
2018-05-18T01:32:12.713Z,75.27
2018-05-18T01:34:44.019Z,75.67
2018-05-18T01:37:14.037Z,74.89
2018-05-18T01:39:43.736Z,75.75
2018-05-18T01:42:13.796Z,75.36
2018-05-18T01:44:44.416Z,75.17
2018-05-18T01:47:15.687Z,74.72
2018-05-18T01:49:46.170Z,75.61
2018-05-18T01:52:17.559Z,75.09
2018-05-18T01:54:48.870Z,75.66
2018-05-18T01:57:21.142Z,75.20
2018-05-18T01:59:53.403Z,75.61
2018-05-18T02:02:23.403Z,75.07
2018-05-18T02:04:54.895Z,75.04
2018-05-18T02:07:26.399Z,75.45
2018-05-18T02:09:57.919Z,75.44
2018-05-18T02:12:27.917Z,75.28
2018-05-18T02:14:59.732Z,75.69
2018-05-18T02:17:29.107Z,76.08
2018-05-18T02:19:59.129Z,74.73
2018-05-18T02:22:31.109Z,74.95
2018-05-18T02:25:03.687Z,74.65
2018-05-18T02:27:34.889Z,74.19
2018-05-18T02:30:04.804Z,74.30
2018-05-18T02:32:35.021Z,75.10
2018-05-18T02:35:07.783Z,74.71
2018-05-18T02:37:38.241Z,74.84
2018-05-18T02:40:08.250Z,74.66
2018-05-18T02:42:39.221Z,73.99
2018-05-18T02:45:10.522Z,75.22
2018-05-18T02:47:41.956Z,74.67
2018-05-18T02:50:12.341Z,74.53
2018-05-18T02:52:42.821Z,74.59
2018-05-18T02:55:13.301Z,73.67
2018-05-18T02:57:45.194Z,73.67
2018-05-18T03:00:15.325Z,74.13
2018-05-18T03:02:46.215Z,73.81
2018-05-18T03:05:16.176Z,74.39
2018-05-18T03:07:46.211Z,73.99
2018-05-18T03:10:16.331Z,73.43
2018-05-18T03:12:47.219Z,72.69
2018-05-18T03:15:17.212Z,73.15
2018-05-18T03:17:48.851Z,73.81
2018-05-18T03:20:18.717Z,73.31
2018-05-18T03:22:50.078Z,72.93
2018-05-18T03:25:21.577Z,72.66
2018-05-18T03:27:51.949Z,72.40
2018-05-18T03:30:22.377Z,73.15
2018-05-18T03:32:52.361Z,73.65
2018-05-18T03:35:22.353Z,72.94
2018-05-18T03:37:53.869Z,72.99
2018-05-18T03:40:23.444Z,72.64
2018-05-18T03:42:55.448Z,72.42
2018-05-18T03:45:27.348Z,72.05
2018-05-18T03:47:57.356Z,71.74
2018-05-18T03:50:28.794Z,72.27
2018-05-18T03:52:58.713Z,72.18
2018-05-18T03:55:30.089Z,71.84
2018-05-18T03:58:01.140Z,72.66
2018-05-18T04:00:31.939Z,71.80
2018-05-18T04:03:42.092Z,72.35
2018-05-18T04:06:56.670Z,71.90
2018-05-18T04:09:28.579Z,71.35
2018-05-18T04:11:59.102Z,71.59
2018-05-18T04:14:30.530Z,71.63
2018-05-18T04:17:01.991Z,71.19
2018-05-18T04:19:33.416Z,71.14
2018-05-18T04:22:05.381Z,71.31
2018-05-18T04:24:35.116Z,70.04
2018-05-18T04:27:04.608Z,70.41
2018-05-18T04:29:35.577Z,70.37
2018-05-18T04:32:07.163Z,69.94
2018-05-18T04:34:35.785Z,70.54
2018-05-18T04:37:06.247Z,70.07
2018-05-18T04:39:36.708Z,70.42
2018-05-18T04:42:07.065Z,69.60
2018-05-18T04:44:39.091Z,70.08
2018-05-18T04:47:09.070Z,70.04
2018-05-18T04:49:40.556Z,70.15
2018-05-18T04:52:11.208Z,70.05
2018-05-18T04:54:42.550Z,69.74
2018-05-18T04:57:13.859Z,68.99
2018-05-18T04:59:45.217Z,68.78
2018-05-18T05:02:14.349Z,67.84
2018-05-18T05:04:45.762Z,69.20
2018-05-18T05:07:16.270Z,69.04
2018-05-18T05:09:46.236Z,67.49
2018-05-18T05:12:17.653Z,68.86
2018-05-18T05:14:49.217Z,68.39
2018-05-18T05:17:21.662Z,67.94
2018-05-18T05:19:53.051Z,66.58
2018-05-18T05:22:24.046Z,66.17
2018-05-18T05:24:55.399Z,66.67
2018-05-18T05:27:25.462Z,66.58
2018-05-18T05:29:56.109Z,65.97
2018-05-18T05:32:26.235Z,66.75
2018-05-18T05:34:57.872Z,67.28
2018-05-18T05:37:29.253Z,66.45
2018-05-18T05:39:59.916Z,65.60
2018-05-18T05:42:29.840Z,65.50
2018-05-18T05:44:59.788Z,65.79
2018-05-18T05:47:29.655Z,65.95
2018-05-18T05:50:01.165Z,65.03
2018-05-18T05:52:32.756Z,65.04
2018-05-18T05:55:02.537Z,63.84
2018-05-18T05:57:34.268Z,64.66
2018-05-18T06:00:04.354Z,63.40
2018-05-18T06:02:33.575Z,63.30
2018-05-18T06:05:05.248Z,64.30
2018-05-18T06:07:37.458Z,61.77
2018-05-18T06:10:07.389Z,62.90
2018-05-18T06:12:37.982Z,61.58
2018-05-18T06:15:09.611Z,63.22
2018-05-18T06:17:40.970Z,61.42
2018-05-18T06:20:12.959Z,61.88
2018-05-18T06:22:43.569Z,62.26
2018-05-18T06:25:15.065Z,62.80
2018-05-18T06:27:46.368Z,61.08
2018-05-18T06:30:16.460Z,60.43
2018-05-18T06:32:48.215Z,61.15
2018-05-18T06:35:21.404Z,61.03
2018-05-18T06:37:52.514Z,59.45
2018-05-18T06:40:23.971Z,59.34
2018-05-18T06:42:53.922Z,59.30
2018-05-18T06:45:23.865Z,58.99
2018-05-18T06:47:55.304Z,58.37
2018-05-18T06:50:26.740Z,56.89
2018-05-18T06:52:58.202Z,58.11
2018-05-18T06:55:30.130Z,57.11
2018-05-18T06:58:00.620Z,57.42
2018-05-18T07:00:32.068Z,58.72
2018-05-18T07:03:02.117Z,57.44
2018-05-18T07:05:31.547Z,60.02
2018-05-18T07:08:03.478Z,58.39
2018-05-18T07:10:35.027Z,58.65
2018-05-18T07:13:06.275Z,59.00
2018-05-18T07:15:36.290Z,58.59
2018-05-18T07:18:07.629Z,59.08
2018-05-18T07:20:37.671Z,58.29
2018-05-18T07:23:09.281Z,58.83
2018-05-18T07:25:39.399Z,57.95
2018-05-18T07:28:11.342Z,57.97
2018-05-18T07:30:41.561Z,58.42
2018-05-18T07:33:13.506Z,58.87
2018-05-18T07:35:44.877Z,59.77
2018-05-18T07:38:15.092Z,58.80
2018-05-18T07:40:45.524Z,58.01
2018-05-18T07:43:15.440Z,57.59
2018-05-18T07:45:47.343Z,57.31
2018-05-18T07:48:18.729Z,58.21
2018-05-18T07:50:50.665Z,58.15
2018-05-18T07:53:20.689Z,58.14
2018-05-18T07:55:53.038Z,57.93
2018-05-18T07:58:23.475Z,56.78
2018-05-18T08:00:54.359Z,56.63
2018-05-18T08:03:25.509Z,55.07
2018-05-18T08:05:56.119Z,54.65
2018-05-18T08:08:26.727Z,53.73
2018-05-18T08:10:58.111Z,53.27
2018-05-18T08:13:28.126Z,52.51
2018-05-18T08:15:59.566Z,52.37
2018-05-18T08:18:30.913Z,52.53
2018-05-18T08:21:03.713Z,52.55
2018-05-18T08:23:45.592Z,52.97
2018-05-18T08:26:17.974Z,53.05
2018-05-18T08:29:24.950Z,51.77
2018-05-18T08:31:56.775Z,52.46
2018-05-18T08:34:26.692Z,51.95
2018-05-18T08:36:58.256Z,49.57
2018-05-18T08:39:31.205Z,47.82
2018-05-18T08:42:00.695Z,46.20
2018-05-18T08:44:31.881Z,49.84
2018-05-18T08:47:03.800Z,49.03
2018-05-18T08:49:34.175Z,47.84
2018-05-18T08:52:05.545Z,47.59
2018-05-18T08:54:35.518Z,45.52
2018-05-18T08:57:09.360Z,46.68
2018-05-18T08:59:39.761Z,47.50
2018-05-18T09:02:12.238Z,48.61
2018-05-18T09:04:44.663Z,48.50
2018-05-18T09:07:15.923Z,45.32
2018-05-18T09:09:46.398Z,42.63
2018-05-18T09:12:17.038Z,43.36
2018-05-18T09:14:48.484Z,42.46
2018-05-18T09:17:19.850Z,39.82
2018-05-18T09:19:50.334Z,38.51
2018-05-18T09:22:20.352Z,40.87
2018-05-18T09:24:50.660Z,39.23
2018-05-18T09:27:20.022Z,39.64
2018-05-18T09:29:49.966Z,40.14
2018-05-18T09:32:21.851Z,39.36
2018-05-18T09:34:52.345Z,35.81
2018-05-18T09:37:22.238Z,38.24
2018-05-18T09:39:53.638Z,33.61
2018-05-18T09:42:23.286Z,35.66
2018-05-18T09:44:53.105Z,39.06
2018-05-18T09:47:23.035Z,38.20
2018-05-18T09:49:53.257Z,40.31
2018-05-18T09:52:24.423Z,38.44
2018-05-18T09:54:54.710Z,37.58
2018-05-18T09:57:24.233Z,35.63
2018-05-18T09:59:53.261Z,37.21
2018-05-18T10:02:25.377Z,36.69
2018-05-18T10:04:57.044Z,38.47
2018-05-18T10:07:26.174Z,36.22
2018-05-18T10:09:57.904Z,34.67
2018-05-18T10:12:29.444Z,37.70
2018-05-18T10:14:58.581Z,38.38
2018-05-18T10:17:29.949Z,38.12
2018-05-18T10:20:02.043Z,35.68
2018-05-18T10:22:31.078Z,40.03
2018-05-18T10:25:01.809Z,39.36
2018-05-18T10:27:32.186Z,39.98
2018-05-18T10:30:02.323Z,38.34
2018-05-18T10:32:33.725Z,37.60
2018-05-18T10:35:03.502Z,36.91
2018-05-18T10:37:33.408Z,36.11
2018-05-18T10:40:04.845Z,36.10
2018-05-18T10:42:35.185Z,35.59
2018-05-18T10:45:04.272Z,36.79
2018-05-18T10:47:35.621Z,33.24
2018-05-18T10:50:08.282Z,38.14
2018-05-18T10:52:38.116Z,40.15
2018-05-18T10:55:08.448Z,36.43
2018-05-18T10:57:38.869Z,35.70
2018-05-18T11:00:10.320Z,36.06
2018-05-18T11:02:40.238Z,34.52
2018-05-18T11:05:12.158Z,37.77
2018-05-18T11:07:42.001Z,36.00
2018-05-18T11:10:13.505Z,35.51
2018-05-18T11:12:43.360Z,36.11
2018-05-18T11:15:13.178Z,37.21
2018-05-18T11:17:44.732Z,40.26
2018-05-18T11:20:14.759Z,39.97
2018-05-18T11:22:44.569Z,38.34
2018-05-18T11:25:14.470Z,36.25
2018-05-18T11:27:45.876Z,39.17
2018-05-18T11:30:15.233Z,39.28
2018-05-18T11:32:46.644Z,41.62
2018-05-18T11:35:18.354Z,38.80
2018-05-18T11:37:48.357Z,37.03
2018-05-18T11:40:19.794Z,37.57
2018-05-18T11:42:49.402Z,37.01
2018-05-18T11:45:21.280Z,40.33
2018-05-18T11:47:51.172Z,40.24
2018-05-18T11:50:22.635Z,40.71
2018-05-18T11:52:52.566Z,41.65
2018-05-18T11:55:22.473Z,40.98
2018-05-18T11:57:52.391Z,41.29
2018-05-18T12:00:22.784Z,42.07
2018-05-18T12:02:54.278Z,39.85
2018-05-18T12:05:26.088Z,40.56
2018-05-18T12:07:57.502Z,37.90
2018-05-18T12:10:27.206Z,37.08
2018-05-18T12:12:58.200Z,36.77
2018-05-18T12:15:28.143Z,39.47
2018-05-18T12:17:59.516Z,39.36
2018-05-18T12:20:31.432Z,39.27
2018-05-18T12:23:00.508Z,40.49
2018-05-18T12:25:32.452Z,42.12
2018-05-18T12:28:02.405Z,40.07
2018-05-18T12:30:34.442Z,39.78
2018-05-18T12:33:04.595Z,39.46
2018-05-18T12:35:35.736Z,41.59
2018-05-18T12:38:07.222Z,39.95
2018-05-18T12:40:36.291Z,39.90
2018-05-18T12:43:08.051Z,40.27
2018-05-18T12:45:40.013Z,39.39
2018-05-18T12:48:09.954Z,41.36
2018-05-18T12:50:41.598Z,40.98
2018-05-18T12:53:13.123Z,41.25
2018-05-18T12:55:45.493Z,42.03
2018-05-18T12:58:15.323Z,40.99
2018-05-18T13:00:46.773Z,38.74
2018-05-18T13:03:16.588Z,37.49
2018-05-18T13:05:46.501Z,40.40
2018-05-18T13:08:18.555Z,40.07
2018-05-18T13:10:49.891Z,40.03
2018-05-18T13:13:19.826Z,38.99
2018-05-18T13:15:51.210Z,39.72
2018-05-18T13:18:22.656Z,43.90
2018-05-18T13:20:54.169Z,41.39
2018-05-18T13:23:24.106Z,38.87
2018-05-18T13:25:54.200Z,37.66
2018-05-18T13:28:24.222Z,42.61
2018-05-18T13:30:54.148Z,40.48
2018-05-18T13:33:25.591Z,41.21
2018-05-18T13:35:57.225Z,39.25
2018-05-18T13:38:29.163Z,42.22
2018-05-18T13:40:58.799Z,40.39
2018-05-18T13:43:28.723Z,40.85
2018-05-18T13:45:59.446Z,40.63
2018-05-18T13:48:28.592Z,39.62
2018-05-18T13:51:00.714Z,39.22
2018-05-18T13:53:32.171Z,40.34
2018-05-18T13:56:02.189Z,42.26
2018-05-18T13:58:32.211Z,44.39
2018-05-18T14:01:03.560Z,45.22
2018-05-18T14:03:33.497Z,43.94
2018-05-18T14:06:03.455Z,45.45
2018-05-18T14:08:34.948Z,46.63
2018-05-18T14:11:06.518Z,46.37
2018-05-18T14:13:36.405Z,45.11
2018-05-18T14:16:06.169Z,44.20
2018-05-18T14:18:36.922Z,43.60
2018-05-18T14:21:07.148Z,42.45
2018-05-18T14:23:37.112Z,45.57
2018-05-18T14:26:06.593Z,43.33
2018-05-18T14:28:38.053Z,43.86
2018-05-18T14:31:09.387Z,44.58
2018-05-18T14:33:39.382Z,43.72
2018-05-18T14:36:09.805Z,44.05
2018-05-18T14:38:39.554Z,44.67
2018-05-18T14:41:11.108Z,45.27
2018-05-18T14:43:42.489Z,41.86
2018-05-18T14:46:16.173Z,43.36
2018-05-18T14:48:47.251Z,43.77
2018-05-18T14:51:19.141Z,42.61
2018-05-18T14:53:49.514Z,41.54
2018-05-18T14:56:20.172Z,41.85
2018-05-18T14:58:50.352Z,43.13
2018-05-18T15:01:20.811Z,44.00
2018-05-18T15:03:52.574Z,43.83
2018-05-18T15:06:23.041Z,44.00
2018-05-18T15:08:54.408Z,43.38
2018-05-18T15:11:24.316Z,44.98
2018-05-18T15:13:55.931Z,43.46
2018-05-18T15:16:27.558Z,42.98
2018-05-18T15:18:59.393Z,44.08
2018-05-18T15:21:29.288Z,45.23
2018-05-18T15:24:00.233Z,45.50
2018-05-18T15:26:31.602Z,43.81
2018-05-18T15:29:03.992Z,46.95
2018-05-18T15:31:33.758Z,45.84
2018-05-18T15:34:04.165Z,46.18
2018-05-18T15:36:34.903Z,48.17
2018-05-18T15:39:06.571Z,46.65
2018-05-18T15:41:37.471Z,47.02
2018-05-18T15:44:09.082Z,47.03
2018-05-18T15:46:39.415Z,47.63
2018-05-18T15:49:12.537Z,46.94
2018-05-18T15:51:43.032Z,47.40
2018-05-18T15:54:14.738Z,49.17
2018-05-18T15:56:46.384Z,50.81
2018-05-18T15:59:17.976Z,50.83
2018-05-18T16:01:48.353Z,49.67
2018-05-18T16:04:18.549Z,49.37
2018-05-18T16:06:50.315Z,48.78
2018-05-18T16:09:21.765Z,50.74
2018-05-18T16:11:53.268Z,50.80
2018-05-18T16:14:24.765Z,49.99
2018-05-18T16:16:56.355Z,50.19
2018-05-18T16:19:27.800Z,49.60
2018-05-18T16:21:56.676Z,48.98
2018-05-18T16:24:28.282Z,49.21
2018-05-18T16:26:58.702Z,48.64
2018-05-18T16:29:30.978Z,47.37
2018-05-18T16:32:01.501Z,47.85
2018-05-18T16:34:32.832Z,46.77
2018-05-18T16:37:03.321Z,46.11
2018-05-18T16:39:33.566Z,47.82
2018-05-18T16:42:02.741Z,47.21
2018-05-18T16:44:32.647Z,47.85
2018-05-18T16:47:03.088Z,48.04
2018-05-18T16:49:34.339Z,47.61
2018-05-18T16:52:06.184Z,49.02
2018-05-18T16:54:37.757Z,48.50
2018-05-18T16:57:07.636Z,49.02
2018-05-18T16:59:37.720Z,49.06
2018-05-18T17:02:09.410Z,49.47
2018-05-18T17:04:41.261Z,48.80
2018-05-18T17:07:12.855Z,48.98
2018-05-18T17:09:44.880Z,50.07
2018-05-18T17:12:16.236Z,49.72
2018-05-18T17:14:47.145Z,49.98
2018-05-18T17:17:18.725Z,50.65
2018-05-18T17:19:50.810Z,51.99
2018-05-18T17:22:22.440Z,51.95
2018-05-18T17:24:53.983Z,51.83
2018-05-18T17:27:25.954Z,51.35
2018-05-18T17:29:57.326Z,50.82
2018-05-18T17:32:28.311Z,51.91
2018-05-18T17:34:58.797Z,51.48
2018-05-18T17:37:31.010Z,51.67
2018-05-18T17:40:02.485Z,51.65
2018-05-18T17:42:34.107Z,51.79
2018-05-18T17:45:04.077Z,52.15
2018-05-18T17:47:34.063Z,52.59
2018-05-18T17:50:04.019Z,51.72
2018-05-18T17:52:35.133Z,51.66
2018-05-18T17:55:04.740Z,52.24
2018-05-18T17:57:34.677Z,52.04
2018-05-18T18:00:05.811Z,52.26
2018-05-18T18:02:37.098Z,53.17
2018-05-18T18:05:08.176Z,52.28
2018-05-18T18:07:39.831Z,51.16
2018-05-18T18:10:09.752Z,50.74
2018-05-18T18:12:41.662Z,52.03
2018-05-18T18:15:11.810Z,53.24
2018-05-18T18:17:43.133Z,52.10
2018-05-18T18:20:13.057Z,52.28
2018-05-18T18:22:45.057Z,51.73
2018-05-18T18:25:14.942Z,53.33
2018-05-18T18:27:44.894Z,53.57
2018-05-18T18:30:14.017Z,53.08
2018-05-18T18:32:43.966Z,53.99
2018-05-18T18:35:16.021Z,53.72
2018-05-18T18:37:46.040Z,54.83
2018-05-18T18:40:17.190Z,55.10
2018-05-18T18:42:49.404Z,53.23
2018-05-18T18:45:20.016Z,53.77
2018-05-18T18:47:50.666Z,53.82
2018-05-18T18:50:21.321Z,54.70
2018-05-18T18:52:52.967Z,54.35
2018-05-18T18:55:24.949Z,55.22
2018-05-18T18:57:54.945Z,55.02
2018-05-18T19:00:26.475Z,55.80
2018-05-18T19:02:56.382Z,55.75
2018-05-18T19:05:26.293Z,56.01
2018-05-18T19:07:58.708Z,56.97
2018-05-18T19:10:29.097Z,57.09
2018-05-18T19:13:00.804Z,56.92
2018-05-18T19:15:30.281Z,56.98
2018-05-18T19:18:01.587Z,57.79
2018-05-18T19:20:33.092Z,57.56
2018-05-18T19:23:04.561Z,58.73
2018-05-18T19:25:36.476Z,58.61
2018-05-18T19:28:05.736Z,58.92
2018-05-18T19:30:38.216Z,58.92
2018-05-18T19:33:09.603Z,59.58
2018-05-18T19:35:42.731Z,60.24
2018-05-18T19:38:15.016Z,60.11
2018-05-18T19:40:45.730Z,61.40
2018-05-18T19:43:17.191Z,60.90
2018-05-18T19:45:47.802Z,60.65
2018-05-18T19:48:17.848Z,61.35
2018-05-18T19:50:48.277Z,62.46
2018-05-18T19:53:18.316Z,61.55
2018-05-18T19:55:49.782Z,61.76
2018-05-18T19:58:19.791Z,61.99
2018-05-18T20:00:50.920Z,62.13
2018-05-18T20:03:21.391Z,62.43
2018-05-18T20:05:52.360Z,62.70
2018-05-18T20:08:24.002Z,62.41
2018-05-18T20:10:53.154Z,62.90
2018-05-18T20:13:22.890Z,63.12
2018-05-18T20:15:54.940Z,63.15
2018-05-18T20:18:24.350Z,63.56
2018-05-18T20:20:55.682Z,63.56
2018-05-18T20:23:26.979Z,63.12
2018-05-18T20:25:56.958Z,63.72
2018-05-18T20:28:26.663Z,63.65
2018-05-18T20:30:56.556Z,63.64
2018-05-18T20:33:27.480Z,64.66
2018-05-18T20:35:58.073Z,63.96
2018-05-18T20:38:28.475Z,64.10
2018-05-18T20:40:58.898Z,65.54
2018-05-18T20:43:28.808Z,65.07
2018-05-18T20:45:58.904Z,64.65
2018-05-18T20:48:29.507Z,66.16
2018-05-18T20:50:59.836Z,66.19
2018-05-18T20:53:29.942Z,64.63
2018-05-18T20:56:00.479Z,65.71
2018-05-18T20:58:31.020Z,64.37
2018-05-18T21:01:01.189Z,65.34
2018-05-18T21:03:33.117Z,64.15
2018-05-18T21:06:04.288Z,64.24
2018-05-18T21:08:34.596Z,63.62
2018-05-18T21:11:04.594Z,62.37
2018-05-18T21:13:36.250Z,61.83
2018-05-18T21:16:06.803Z,61.42
2018-05-18T21:18:36.953Z,60.85
2018-05-18T21:21:06.188Z,61.53
2018-05-18T21:23:38.537Z,61.29
2018-05-18T21:26:09.545Z,61.72
2018-05-18T21:28:39.471Z,61.94
2018-05-18T21:31:09.454Z,62.40
2018-05-18T21:33:39.865Z,60.92
2018-05-18T21:36:11.264Z,61.37
2018-05-18T21:38:42.929Z,60.53
2018-05-18T21:41:12.856Z,61.15
2018-05-18T21:43:42.832Z,62.65
2018-05-18T21:46:12.448Z,60.78
2018-05-18T21:48:43.861Z,61.92
2018-05-18T21:51:15.367Z,60.36
2018-05-18T21:53:47.140Z,60.78
2018-05-18T21:56:18.764Z,62.11
2018-05-18T21:58:48.880Z,62.24
2018-05-18T22:01:19.913Z,62.26
2018-05-18T22:03:50.785Z,62.16
2018-05-18T22:06:22.231Z,61.66
2018-05-18T22:08:53.255Z,61.71
2018-05-18T22:11:24.428Z,61.56
2018-05-18T22:13:56.447Z,61.13
2018-05-18T22:16:28.588Z,61.29
2018-05-18T22:18:58.557Z,61.74
2018-05-18T22:21:28.593Z,61.45
2018-05-18T22:23:58.795Z,62.09
2018-05-18T22:26:28.452Z,62.95
2018-05-18T22:28:59.345Z,62.85
2018-05-18T22:31:31.404Z,63.54
2018-05-18T22:34:02.737Z,62.62
2018-05-18T22:36:33.922Z,61.89
2018-05-18T22:39:04.526Z,62.50
2018-05-18T22:41:35.066Z,62.06
2018-05-18T22:44:05.883Z,64.14
2018-05-18T22:46:36.275Z,62.91
2018-05-18T22:49:06.803Z,61.92
2018-05-18T22:51:37.614Z,61.99
2018-05-18T22:54:09.041Z,61.91
2018-05-18T22:56:38.734Z,61.74
2018-05-18T22:59:08.777Z,62.15
2018-05-18T23:01:38.866Z,63.20
2018-05-18T23:04:10.183Z,62.94
2018-05-18T23:06:41.676Z,63.33
2018-05-18T23:09:13.672Z,63.15
2018-05-18T23:11:46.035Z,62.68
2018-05-18T23:14:17.368Z,63.50
2018-05-18T23:16:47.535Z,63.65
2018-05-18T23:19:17.904Z,64.17
2018-05-18T23:21:48.372Z,63.74
2018-05-18T23:24:19.177Z,64.80
2018-05-18T23:26:51.781Z,64.96
2018-05-18T23:29:24.296Z,64.88
2018-05-18T23:31:56.419Z,66.18
2018-05-18T23:34:28.118Z,65.91
2018-05-18T23:36:59.677Z,65.15
2018-05-18T23:39:31.184Z,65.37
2018-05-18T23:42:02.530Z,65.39
2018-05-18T23:44:32.611Z,65.25
2018-05-18T23:47:03.909Z,64.78
2018-05-18T23:49:34.657Z,65.73
2018-05-18T23:52:04.617Z,66.04
2018-05-18T23:54:34.584Z,65.87
2018-05-18T23:57:05.989Z,66.47
2018-05-18T23:59:37.898Z,66.49
